sensor_id;sensor_type;location;lat;lon;timestamp;pressure;altitude;pressure_sealevel;temperature;humidity
61786;BME280;47692;53.714;11.372;2023-05-07T00:01:41;101726.75;;;7.67;100.00
61786;BME280;47692;53.714;11.372;2023-05-07T00:04:06;101723.25;;;7.65;100.00
61786;BME280;47692;53.714;11.372;2023-05-07T00:06:32;101729.31;;;7.66;100.00
61786;BME280;47692;53.714;11.372;2023-05-07T00:08:58;101726.75;;;7.67;100.00
61786;BME280;47692;53.714;11.372;2023-05-07T00:11:26;101723.25;;;7.62;100.00
61786;BME280;47692;53.714;11.372;2023-05-07T00:13:51;101724.97;;;7.60;100.00
61786;BME280;47692;53.714;11.372;2023-05-07T00:16:17;101726.72;;;7.61;100.00
61786;BME280;47692;53.714;11.372;2023-05-07T00:18:42;101728.41;;;7.59;100.00
61786;BME280;47692;53.714;11.372;2023-05-07T00:21:07;101728.41;;;7.60;100.00
61786;BME280;47692;53.714;11.372;2023-05-07T00:23:33;101726.72;;;7.61;100.00
61786;BME280;47692;53.714;11.372;2023-05-07T00:25:58;101729.31;;;7.61;100.00
61786;BME280;47692;53.714;11.372;2023-05-07T00:28:23;101728.41;;;7.56;100.00
61786;BME280;47692;53.714;11.372;2023-05-07T00:30:48;101713.72;;;7.63;100.00
61786;BME280;47692;53.714;11.372;2023-05-07T00:33:14;101718.06;;;7.65;100.00
61786;BME280;47692;53.714;11.372;2023-05-07T00:35:39;101707.66;;;7.68;100.00
61786;BME280;47692;53.714;11.372;2023-05-07T00:38:05;101720.66;;;7.68;100.00
61786;BME280;47692;53.714;11.372;2023-05-07T00:40:30;101715.44;;;7.67;100.00
61786;BME280;47692;53.714;11.372;2023-05-07T00:42:55;101722.41;;;7.65;100.00
61786;BME280;47692;53.714;11.372;2023-05-07T00:45:26;101733.66;;;7.65;100.00
61786;BME280;47692;53.714;11.372;2023-05-07T00:47:54;101732.78;;;7.65;100.00
61786;BME280;47692;53.714;11.372;2023-05-07T00:50:20;101729.31;;;7.64;100.00
61786;BME280;47692;53.714;11.372;2023-05-07T00:52:45;101722.34;;;7.60;100.00
61786;BME280;47692;53.714;11.372;2023-05-07T00:55:11;101722.34;;;7.60;100.00
61786;BME280;47692;53.714;11.372;2023-05-07T00:57:40;101730.16;;;7.60;100.00
61786;BME280;47692;53.714;11.372;2023-05-07T01:00:08;101729.31;;;7.63;100.00
61786;BME280;47692;53.714;11.372;2023-05-07T01:02:38;101721.50;;;7.66;100.00
61786;BME280;47692;53.714;11.372;2023-05-07T01:05:04;101720.63;;;7.60;100.00
61786;BME280;47692;53.714;11.372;2023-05-07T01:07:31;101725.84;;;7.64;100.00
61786;BME280;47692;53.714;11.372;2023-05-07T01:09:58;101729.31;;;7.63;100.00
61786;BME280;47692;53.714;11.372;2023-05-07T01:12:24;101722.34;;;7.60;100.00
61786;BME280;47692;53.714;11.372;2023-05-07T01:14:50;101714.56;;;7.60;100.00
61786;BME280;47692;53.714;11.372;2023-05-07T01:17:17;101724.09;;;7.63;100.00
61786;BME280;47692;53.714;11.372;2023-05-07T01:19:42;101724.09;;;7.63;100.00
61786;BME280;47692;53.714;11.372;2023-05-07T01:22:09;101714.56;;;7.63;100.00
61786;BME280;47692;53.714;11.372;2023-05-07T01:24:37;101731.91;;;7.61;100.00
61786;BME280;47692;53.714;11.372;2023-05-07T01:27:02;101721.50;;;7.61;100.00
61786;BME280;47692;53.714;11.372;2023-05-07T01:29:28;101712.81;;;7.56;100.00
61786;BME280;47692;53.714;11.372;2023-05-07T01:31:54;101713.69;;;7.58;100.00
61786;BME280;47692;53.714;11.372;2023-05-07T01:34:21;101705.91;;;7.61;100.00
61786;BME280;47692;53.714;11.372;2023-05-07T01:36:47;101716.28;;;7.55;100.00
61786;BME280;47692;53.714;11.372;2023-05-07T01:39:14;101711.97;;;7.58;100.00
61786;BME280;47692;53.714;11.372;2023-05-07T01:41:41;101712.81;;;7.59;100.00
61786;BME280;47692;53.714;11.372;2023-05-07T01:44:09;101707.63;;;7.56;100.00
61786;BME280;47692;53.714;11.372;2023-05-07T01:46:35;101709.34;;;7.54;100.00
61786;BME280;47692;53.714;11.372;2023-05-07T01:49:00;101702.44;;;7.59;100.00
61786;BME280;47692;53.714;11.372;2023-05-07T01:51:26;101703.28;;;7.58;100.00
61786;BME280;47692;53.714;11.372;2023-05-07T01:53:52;101704.13;;;7.57;100.00
61786;BME280;47692;53.714;11.372;2023-05-07T01:56:18;101707.63;;;7.56;100.00
61786;BME280;47692;53.714;11.372;2023-05-07T01:58:44;101709.34;;;7.57;100.00
61786;BME280;47692;53.714;11.372;2023-05-07T02:01:12;101710.22;;;7.59;100.00
61786;BME280;47692;53.714;11.372;2023-05-07T02:03:37;101709.34;;;7.54;100.00
61786;BME280;47692;53.714;11.372;2023-05-07T02:06:03;101708.47;;;7.56;100.00
61786;BME280;47692;53.714;11.372;2023-05-07T02:08:28;101712.81;;;7.56;100.00
61786;BME280;47692;53.714;11.372;2023-05-07T02:10:53;101710.22;;;7.56;100.00
61786;BME280;47692;53.714;11.372;2023-05-07T02:13:19;101711.06;;;7.55;100.00
61786;BME280;47692;53.714;11.372;2023-05-07T02:15:45;101716.28;;;7.58;100.00
61786;BME280;47692;53.714;11.372;2023-05-07T02:18:15;101721.47;;;7.55;100.00
61786;BME280;47692;53.714;11.372;2023-05-07T02:20:41;101721.44;;;7.52;100.00
61786;BME280;47692;53.714;11.372;2023-05-07T02:23:06;101724.94;;;7.57;100.00
61786;BME280;47692;53.714;11.372;2023-05-07T02:25:31;101724.06;;;7.58;100.00
61786;BME280;47692;53.714;11.372;2023-05-07T02:27:57;101720.63;;;7.57;100.00
61786;BME280;47692;53.714;11.372;2023-05-07T02:30:22;101719.72;;;7.57;100.00
61786;BME280;47692;53.714;11.372;2023-05-07T02:32:48;101717.16;;;7.58;100.00
61786;BME280;47692;53.714;11.372;2023-05-07T02:35:13;101716.28;;;7.55;100.00
61786;BME280;47692;53.714;11.372;2023-05-07T02:37:38;101722.31;;;7.54;100.00
61786;BME280;47692;53.714;11.372;2023-05-07T02:40:04;101719.72;;;7.54;100.00
61786;BME280;47692;53.714;11.372;2023-05-07T02:42:30;101725.78;;;7.53;100.00
61786;BME280;47692;53.714;11.372;2023-05-07T02:44:55;101734.44;;;7.52;100.00
61786;BME280;47692;53.714;11.372;2023-05-07T02:47:20;101734.44;;;7.53;100.00
61786;BME280;47692;53.714;11.372;2023-05-07T02:49:46;101725.78;;;7.51;100.00
61786;BME280;47692;53.714;11.372;2023-05-07T02:52:11;101728.38;;;7.50;100.00
61786;BME280;47692;53.714;11.372;2023-05-07T02:54:36;101736.13;;;7.48;100.00
61786;BME280;47692;53.714;11.372;2023-05-07T02:57:02;101737.03;;;7.49;100.00
61786;BME280;47692;53.714;11.372;2023-05-07T02:59:28;101735.28;;;7.48;100.00
61786;BME280;47692;53.714;11.372;2023-05-07T03:01:53;101735.28;;;7.48;100.00
61786;BME280;47692;53.714;11.372;2023-05-07T03:04:19;101732.69;;;7.49;100.00
61786;BME280;47692;53.714;11.372;2023-05-07T03:06:44;101733.53;;;7.47;100.00
61786;BME280;47692;53.714;11.372;2023-05-07T03:09:09;101736.16;;;7.51;100.00
61786;BME280;47692;53.714;11.372;2023-05-07T03:11:36;101736.16;;;7.50;100.00
61786;BME280;47692;53.714;11.372;2023-05-07T03:14:01;101729.22;;;7.50;100.00
61786;BME280;47692;53.714;11.372;2023-05-07T03:16:27;101726.63;;;7.52;100.00
61786;BME280;47692;53.714;11.372;2023-05-07T03:18:52;101726.66;;;7.55;100.00
61786;BME280;47692;53.714;11.372;2023-05-07T03:21:18;101730.13;;;7.54;100.00
61786;BME280;47692;53.714;11.372;2023-05-07T03:23:43;101734.44;;;7.53;100.00
61786;BME280;47692;53.714;11.372;2023-05-07T03:26:08;101727.53;;;7.52;100.00
61786;BME280;47692;53.714;11.372;2023-05-07T03:28:34;101736.19;;;7.54;100.00
61786;BME280;47692;53.714;11.372;2023-05-07T03:31:00;101727.53;;;7.54;100.00
61786;BME280;47692;53.714;11.372;2023-05-07T03:33:25;101732.69;;;7.51;100.00
61786;BME280;47692;53.714;11.372;2023-05-07T03:35:50;101729.22;;;7.52;100.00
61786;BME280;47692;53.714;11.372;2023-05-07T03:38:16;101727.53;;;7.52;100.00
61786;BME280;47692;53.714;11.372;2023-05-07T03:40:41;101734.44;;;7.50;100.00
61786;BME280;47692;53.714;11.372;2023-05-07T03:43:06;101728.38;;;7.53;100.00
61786;BME280;47692;53.714;11.372;2023-05-07T03:45:31;101732.69;;;7.48;100.00
61786;BME280;47692;53.714;11.372;2023-05-07T03:47:57;101735.31;;;7.54;100.00
61786;BME280;47692;53.714;11.372;2023-05-07T03:50:22;101741.38;;;7.53;100.00
61786;BME280;47692;53.714;11.372;2023-05-07T03:52:47;101741.41;;;7.57;100.00
61786;BME280;47692;53.714;11.372;2023-05-07T03:55:13;101744.88;;;7.58;100.00
61786;BME280;47692;53.714;11.372;2023-05-07T03:57:38;101742.25;;;7.58;100.00
61786;BME280;47692;53.714;11.372;2023-05-07T04:00:04;101749.22;;;7.59;100.00
61786;BME280;47692;53.714;11.372;2023-05-07T04:02:30;101747.47;;;7.58;100.00
61786;BME280;47692;53.714;11.372;2023-05-07T04:04:55;101747.47;;;7.56;100.00
61786;BME280;47692;53.714;11.372;2023-05-07T04:07:22;101748.34;;;7.58;100.00
61786;BME280;47692;53.714;11.372;2023-05-07T04:09:47;101746.59;;;7.59;100.00
61786;BME280;47692;53.714;11.372;2023-05-07T04:12:12;101754.41;;;7.56;100.00
61786;BME280;47692;53.714;11.372;2023-05-07T04:14:38;101753.56;;;7.62;100.00
61786;BME280;47692;53.714;11.372;2023-05-07T04:17:03;101754.44;;;7.62;100.00
61786;BME280;47692;53.714;11.372;2023-05-07T04:19:28;101757.91;;;7.61;100.00
61786;BME280;47692;53.714;11.372;2023-05-07T04:21:54;101760.47;;;7.59;100.00
61786;BME280;47692;53.714;11.372;2023-05-07T04:24:19;101765.69;;;7.61;100.00
61786;BME280;47692;53.714;11.372;2023-05-07T04:26:45;101760.44;;;7.56;100.00
61786;BME280;47692;53.714;11.372;2023-05-07T04:29:10;101763.06;;;7.55;100.00
61786;BME280;47692;53.714;11.372;2023-05-07T04:31:36;101765.66;;;7.55;100.00
61786;BME280;47692;53.714;11.372;2023-05-07T04:34:01;101764.78;;;7.56;100.00
61786;BME280;47692;53.714;11.372;2023-05-07T04:36:27;101763.00;;;7.53;100.00
61786;BME280;47692;53.714;11.372;2023-05-07T04:38:53;101764.75;;;7.53;100.00
61786;BME280;47692;53.714;11.372;2023-05-07T04:41:18;101766.50;;;7.54;100.00
61786;BME280;47692;53.714;11.372;2023-05-07T04:43:43;101766.50;;;7.57;100.00
61786;BME280;47692;53.714;11.372;2023-05-07T04:46:09;101765.66;;;7.58;100.00
61786;BME280;47692;53.714;11.372;2023-05-07T04:48:35;101766.50;;;7.57;100.00
61786;BME280;47692;53.714;11.372;2023-05-07T04:51:00;101766.50;;;7.57;100.00
61786;BME280;47692;53.714;11.372;2023-05-07T04:53:25;101770.00;;;7.57;100.00
61786;BME280;47692;53.714;11.372;2023-05-07T04:55:57;101768.25;;;7.55;100.00
61786;BME280;47692;53.714;11.372;2023-05-07T04:58:23;101771.75;;;7.60;100.00
61786;BME280;47692;53.714;11.372;2023-05-07T05:00:48;101776.94;;;7.60;100.00
61786;BME280;47692;53.714;11.372;2023-05-07T05:03:14;101784.72;;;7.58;100.00
61786;BME280;47692;53.714;11.372;2023-05-07T05:05:39;101773.44;;;7.59;100.00
61786;BME280;47692;53.714;11.372;2023-05-07T05:08:05;101785.63;;;7.62;100.00
61786;BME280;47692;53.714;11.372;2023-05-07T05:10:30;101785.63;;;7.62;100.00
61786;BME280;47692;53.714;11.372;2023-05-07T05:12:55;101790.81;;;7.62;100.00
61786;BME280;47692;53.714;11.372;2023-05-07T05:15:21;101783.94;;;7.67;100.00
61786;BME280;47692;53.714;11.372;2023-05-07T05:17:46;101791.72;;;7.70;100.00
61786;BME280;47692;53.714;11.372;2023-05-07T05:20:12;101784.81;;;7.74;100.00
61786;BME280;47692;53.714;11.372;2023-05-07T05:22:38;101787.41;;;7.74;100.00
61786;BME280;47692;53.714;11.372;2023-05-07T05:25:03;101792.66;;;7.77;100.00
61786;BME280;47692;53.714;11.372;2023-05-07T05:27:29;101800.44;;;7.79;100.00
61786;BME280;47692;53.714;11.372;2023-05-07T05:29:54;101799.63;;;7.86;100.00
61786;BME280;47692;53.714;11.372;2023-05-07T05:32:20;101807.44;;;7.89;100.00
61786;BME280;47692;53.714;11.372;2023-05-07T05:34:45;101804.84;;;7.90;100.00
61786;BME280;47692;53.714;11.372;2023-05-07T05:37:10;101815.28;;;7.93;100.00
61786;BME280;47692;53.714;11.372;2023-05-07T05:39:36;101814.38;;;7.93;100.00
61786;BME280;47692;53.714;11.372;2023-05-07T05:42:01;101811.81;;;7.96;100.00
61786;BME280;47692;53.714;11.372;2023-05-07T05:44:27;101818.75;;;8.00;100.00
61786;BME280;47692;53.714;11.372;2023-05-07T05:46:52;101810.97;;;8.00;100.00
61786;BME280;47692;53.714;11.372;2023-05-07T05:49:20;101813.59;;;8.03;100.00
61786;BME280;47692;53.714;11.372;2023-05-07T05:51:45;101823.16;;;8.06;100.00
61786;BME280;47692;53.714;11.372;2023-05-07T05:54:11;101822.28;;;8.08;100.00
61786;BME280;47692;53.714;11.372;2023-05-07T05:56:36;101824.03;;;8.09;100.00
61786;BME280;47692;53.714;11.372;2023-05-07T05:59:02;101824.94;;;8.13;100.00
61786;BME280;47692;53.714;11.372;2023-05-07T06:01:27;101824.03;;;8.14;100.00
61786;BME280;47692;53.714;11.372;2023-05-07T06:03:53;101829.28;;;8.19;100.00
61786;BME280;47692;53.714;11.372;2023-05-07T06:06:18;101829.31;;;8.25;100.00
61786;BME280;47692;53.714;11.372;2023-05-07T06:08:43;101832.78;;;8.30;100.00
61786;BME280;47692;53.714;11.372;2023-05-07T06:11:09;101838.00;;;8.30;100.00
61786;BME280;47692;53.714;11.372;2023-05-07T06:13:34;101824.97;;;8.30;99.96
61786;BME280;47692;53.714;11.372;2023-05-07T06:15:59;101830.19;;;8.30;99.31
61786;BME280;47692;53.714;11.372;2023-05-07T06:18:25;101836.28;;;8.34;99.32
61786;BME280;47692;53.714;11.372;2023-05-07T06:20:51;101832.84;;;8.43;100.00
61786;BME280;47692;53.714;11.372;2023-05-07T06:23:17;101841.59;;;8.54;99.55
61786;BME280;47692;53.714;11.372;2023-05-07T06:25:42;101838.19;;;8.64;99.49
61786;BME280;47692;53.714;11.372;2023-05-07T06:28:07;101835.56;;;8.67;97.84
61786;BME280;47692;53.714;11.372;2023-05-07T06:30:34;101833.00;;;8.70;96.89
61786;BME280;47692;53.714;11.372;2023-05-07T06:32:59;101830.38;;;8.70;97.45
61786;BME280;47692;53.714;11.372;2023-05-07T06:35:25;101832.13;;;8.73;98.20
61786;BME280;47692;53.714;11.372;2023-05-07T06:37:50;101829.50;;;8.78;98.56
61786;BME280;47692;53.714;11.372;2023-05-07T06:40:15;101836.47;;;8.82;97.37
61786;BME280;47692;53.714;11.372;2023-05-07T06:42:41;101842.59;;;8.92;98.02
61786;BME280;47692;53.714;11.372;2023-05-07T06:45:08;101845.19;;;8.99;98.35
61786;BME280;47692;53.714;11.372;2023-05-07T06:47:33;101842.59;;;9.05;98.67
61786;BME280;47692;53.714;11.372;2023-05-07T06:49:59;101844.34;;;9.10;98.14
61786;BME280;47692;53.714;11.372;2023-05-07T06:52:24;101836.50;;;9.05;97.02
61786;BME280;47692;53.714;11.372;2023-05-07T06:54:50;101833.06;;;9.01;96.36
61786;BME280;47692;53.714;11.372;2023-05-07T06:57:15;101837.38;;;9.01;95.33
61786;BME280;47692;53.714;11.372;2023-05-07T06:59:40;101834.78;;;9.15;97.23
61786;BME280;47692;53.714;11.372;2023-05-07T07:02:05;101841.75;;;9.22;97.26
61786;BME280;47692;53.714;11.372;2023-05-07T07:04:31;101840.03;;;9.30;95.83
61786;BME280;47692;53.714;11.372;2023-05-07T07:06:56;101839.16;;;9.39;94.31
61786;BME280;47692;53.714;11.372;2023-05-07T07:09:22;101840.03;;;9.50;93.05
61786;BME280;47692;53.714;11.372;2023-05-07T07:11:47;101836.56;;;9.50;93.10
61786;BME280;47692;53.714;11.372;2023-05-07T07:14:12;101845.22;;;9.52;92.69
61786;BME280;47692;53.714;11.372;2023-05-07T07:16:38;101841.78;;;9.50;93.12
61786;BME280;47692;53.714;11.372;2023-05-07T07:19:03;101840.00;;;9.52;93.24
61786;BME280;47692;53.714;11.372;2023-05-07T07:21:28;101837.41;;;9.53;92.12
61786;BME280;47692;53.714;11.372;2023-05-07T07:23:55;101837.41;;;9.64;93.21
61786;BME280;47692;53.714;11.372;2023-05-07T07:26:20;101841.72;;;9.84;93.37
61786;BME280;47692;53.714;11.372;2023-05-07T07:28:45;101839.97;;;9.98;92.70
61786;BME280;47692;53.714;11.372;2023-05-07T07:31:11;101848.63;;;10.11;90.49
61786;BME280;47692;53.714;11.372;2023-05-07T07:33:37;101839.91;;;10.17;88.92
61786;BME280;47692;53.714;11.372;2023-05-07T07:36:02;101844.22;;;10.29;89.03
61786;BME280;47692;53.714;11.372;2023-05-07T07:38:28;101843.31;;;10.47;89.37
61786;BME280;47692;53.714;11.372;2023-05-07T07:40:53;101847.59;;;10.60;88.55
61786;BME280;47692;53.714;11.372;2023-05-07T07:43:18;101848.47;;;10.62;87.27
61786;BME280;47692;53.714;11.372;2023-05-07T07:45:44;101851.03;;;10.70;86.87
61786;BME280;47692;53.714;11.372;2023-05-07T07:48:11;101848.34;;;10.84;88.54
61786;BME280;47692;53.714;11.372;2023-05-07T07:50:36;101839.53;;;10.97;85.90
61786;BME280;47692;53.714;11.372;2023-05-07T07:53:01;101844.78;;;10.97;84.78
61786;BME280;47692;53.714;11.372;2023-05-07T07:55:27;101842.22;;;10.93;84.91
61786;BME280;47692;53.714;11.372;2023-05-07T07:57:52;101835.19;;;10.96;85.05
61786;BME280;47692;53.714;11.372;2023-05-07T08:00:17;101836.03;;;11.08;85.65
61786;BME280;47692;53.714;11.372;2023-05-07T08:02:43;101837.69;;;11.18;86.17
61786;BME280;47692;53.714;11.372;2023-05-07T08:05:08;101839.31;;;11.31;85.46
61786;BME280;47692;53.714;11.372;2023-05-07T08:07:34;101835.75;;;11.39;83.89
61786;BME280;47692;53.714;11.372;2023-05-07T08:09:59;101831.31;;;11.48;83.22
61786;BME280;47692;53.714;11.372;2023-05-07T08:12:24;101837.38;;;11.55;83.56
61786;BME280;47692;53.714;11.372;2023-05-07T08:14:50;101835.53;;;11.67;82.46
61786;BME280;47692;53.714;11.372;2023-05-07T08:17:15;101832.88;;;11.70;82.30
61786;BME280;47692;53.714;11.372;2023-05-07T08:19:42;101838.06;;;11.74;82.17
61786;BME280;47692;53.714;11.372;2023-05-07T08:22:08;101846.63;;;11.90;83.66
61786;BME280;47692;53.714;11.372;2023-05-07T08:24:33;101842.19;;;12.02;83.17
61786;BME280;47692;53.714;11.372;2023-05-07T08:26:58;101845.69;;;12.01;81.39
61786;BME280;47692;53.714;11.372;2023-05-07T08:29:24;101835.25;;;11.98;80.04
61786;BME280;47692;53.714;11.372;2023-05-07T08:31:49;101843.13;;;11.93;80.40
61786;BME280;47692;53.714;11.372;2023-05-07T08:34:15;101846.56;;;12.01;81.87
61786;BME280;47692;53.714;11.372;2023-05-07T08:36:40;101839.41;;;12.16;80.91
61786;BME280;47692;53.714;11.372;2023-05-07T08:39:07;101838.28;;;12.37;82.17
61786;BME280;47692;53.714;11.372;2023-05-07T08:41:32;101832.94;;;12.46;80.30
61786;BME280;47692;53.714;11.372;2023-05-07T08:43:59;101837.28;;;12.45;78.01
61786;BME280;47692;53.714;11.372;2023-05-07T08:46:29;101835.50;;;12.51;78.29
61786;BME280;47692;53.714;11.372;2023-05-07T08:48:56;101840.63;;;12.60;78.57
61786;BME280;47692;53.714;11.372;2023-05-07T08:51:21;101837.84;;;12.71;80.21
61786;BME280;47692;53.714;11.372;2023-05-07T08:53:48;101839.63;;;12.69;76.87
61786;BME280;47692;53.714;11.372;2023-05-07T08:56:15;101839.63;;;12.69;76.83
61786;BME280;47692;53.714;11.372;2023-05-07T08:58:42;101832.56;;;12.74;76.17
61786;BME280;47692;53.714;11.372;2023-05-07T09:01:11;101832.56;;;12.74;76.13
61786;BME280;47692;53.714;11.372;2023-05-07T09:03:38;101823.72;;;12.81;76.49
61786;BME280;47692;53.714;11.372;2023-05-07T09:06:04;101829.75;;;12.86;78.35
61786;BME280;47692;53.714;11.372;2023-05-07T09:08:30;101821.81;;;12.92;77.09
61786;BME280;47692;53.714;11.372;2023-05-07T09:10:55;101826.94;;;13.02;78.14
61786;BME280;47692;53.714;11.372;2023-05-07T09:13:21;101823.28;;;13.09;77.16
61786;BME280;47692;53.714;11.372;2023-05-07T09:15:46;101824.91;;;13.19;77.34
61786;BME280;47692;53.714;11.372;2023-05-07T09:18:12;101825.69;;;13.24;75.65
61786;BME280;47692;53.714;11.372;2023-05-07T09:20:39;101820.22;;;13.41;76.05
61786;BME280;47692;53.714;11.372;2023-05-07T09:23:06;101823.44;;;13.56;76.49
61786;BME280;47692;53.714;11.372;2023-05-07T09:25:34;101826.88;;;13.60;74.41
61786;BME280;47692;53.714;11.372;2023-05-07T09:28:00;101829.38;;;13.66;73.79
61786;BME280;47692;53.714;11.372;2023-05-07T09:30:30;101831.88;;;13.75;73.73
61786;BME280;47692;53.714;11.372;2023-05-07T09:32:57;101836.94;;;13.84;73.67
61786;BME280;47692;53.714;11.372;2023-05-07T09:35:23;101828.91;;;13.94;73.53
61786;BME280;47692;53.714;11.372;2023-05-07T09:37:53;101837.22;;;14.14;73.80
61786;BME280;47692;53.714;11.372;2023-05-07T09:40:24;101837.06;;;14.24;72.14
61786;BME280;47692;53.714;11.372;2023-05-07T09:42:50;101842.31;;;14.24;71.02
61786;BME280;47692;53.714;11.372;2023-05-07T09:45:41;101833.59;;;14.21;71.25
61786;BME280;47692;53.714;11.372;2023-05-07T09:48:08;101836.06;;;14.29;73.00
61786;BME280;47692;53.714;11.372;2023-05-07T09:50:49;101836.75;;;14.39;71.32
61786;BME280;47692;53.714;11.372;2023-05-07T09:53:16;101835.00;;;14.38;70.72
61786;BME280;47692;53.714;11.372;2023-05-07T09:55:42;101841.28;;;14.31;70.24
61786;BME280;47692;53.714;11.372;2023-05-07T09:58:09;101841.34;;;14.28;70.72
61786;BME280;47692;53.714;11.372;2023-05-07T10:00:35;101831.44;;;14.42;71.73
61786;BME280;47692;53.714;11.372;2023-05-07T10:03:01;101843.38;;;14.57;72.12
61786;BME280;47692;53.714;11.372;2023-05-07T10:05:28;101840.38;;;14.74;71.13
61786;BME280;47692;53.714;11.372;2023-05-07T10:07:53;101841.22;;;14.76;69.55
61786;BME280;47692;53.714;11.372;2023-05-07T10:10:19;101834.03;;;14.84;70.23
61786;BME280;47692;53.714;11.372;2023-05-07T10:12:45;101840.13;;;14.86;69.03
61786;BME280;47692;53.714;11.372;2023-05-07T10:15:12;101833.31;;;14.78;70.15
61786;BME280;47692;53.714;11.372;2023-05-07T10:17:40;101835.75;;;14.85;68.83
61786;BME280;47692;53.714;11.372;2023-05-07T10:20:06;101828.50;;;14.97;68.79
61786;BME280;47692;53.714;11.372;2023-05-07T10:22:41;101829.91;;;15.10;68.62
61786;BME280;47692;53.714;11.372;2023-05-07T10:25:30;101841.88;;;15.24;69.89
61786;BME280;47692;53.714;11.372;2023-05-07T10:27:57;101836.06;;;15.11;67.89
61786;BME280;47692;53.714;11.372;2023-05-07T10:33:01;101842.72;;;15.26;67.34
61786;BME280;47692;53.714;11.372;2023-05-07T10:35:32;101849.81;;;15.22;68.76
61786;BME280;47692;53.714;11.372;2023-05-07T10:38:01;101842.75;;;15.24;66.52
61786;BME280;47692;53.714;11.372;2023-05-07T10:40:27;101838.34;;;15.25;67.11
61786;BME280;47692;53.714;11.372;2023-05-07T10:42:57;101839.28;;;15.22;66.37
61786;BME280;47692;53.714;11.372;2023-05-07T10:45:23;101848.16;;;15.18;66.12
61786;BME280;47692;53.714;11.372;2023-05-07T10:48:14;101847.44;;;15.11;66.87
61786;BME280;47692;53.714;11.372;2023-05-07T10:50:41;101837.75;;;15.13;67.10
61786;BME280;47692;53.714;11.372;2023-05-07T10:55:41;101839.78;;;15.00;67.36
61786;BME280;47692;53.714;11.372;2023-05-07T10:58:28;101845.47;;;14.83;66.92
61786;BME280;47692;53.714;11.372;2023-05-07T11:00:58;101842.69;;;14.90;68.08
61786;BME280;47692;53.714;11.372;2023-05-07T11:03:25;101845.09;;;14.99;67.83
61786;BME280;47692;53.714;11.372;2023-05-07T11:06:10;101837.94;;;15.06;67.47
61786;BME280;47692;53.714;11.372;2023-05-07T11:08:59;101836.84;;;15.14;66.63
61786;BME280;47692;53.714;11.372;2023-05-07T11:11:46;101838.34;;;15.25;67.70
61786;BME280;47692;53.714;11.372;2023-05-07T11:17:02;101841.69;;;15.66;68.00
61786;BME280;47692;53.714;11.372;2023-05-07T11:19:49;101839.50;;;15.85;66.00
61786;BME280;47692;53.714;11.372;2023-05-07T11:24:55;101831.44;;;15.90;64.23
61786;BME280;47692;53.714;11.372;2023-05-07T11:27:24;101827.19;;;15.86;65.31
61786;BME280;47692;53.714;11.372;2023-05-07T11:29:50;101833.09;;;15.94;66.35
61786;BME280;47692;53.714;11.372;2023-05-07T11:32:15;101819.78;;;15.98;65.82
61786;BME280;47692;53.714;11.372;2023-05-07T11:34:47;101826.88;;;15.96;64.28
61786;BME280;47692;53.714;11.372;2023-05-07T11:37:17;101820.75;;;15.96;63.50
61786;BME280;47692;53.714;11.372;2023-05-07T11:39:42;101815.84;;;16.13;63.31
61786;BME280;47692;53.714;11.372;2023-05-07T11:42:25;101822.06;;;16.11;63.37
61786;BME280;47692;53.714;11.372;2023-05-07T11:44:51;101814.59;;;16.27;64.74
61786;BME280;47692;53.714;11.372;2023-05-07T11:47:20;101814.34;;;16.36;64.33
61786;BME280;47692;53.714;11.372;2023-05-07T11:49:49;101809.50;;;16.21;62.79
61786;BME280;47692;53.714;11.372;2023-05-07T11:52:16;101819.31;;;15.84;63.41
61786;BME280;47692;53.714;11.372;2023-05-07T11:54:49;101816.53;;;15.90;64.97
61786;BME280;47692;53.714;11.372;2023-05-07T11:57:15;101831.69;;;15.80;62.51
61786;BME280;47692;53.714;11.372;2023-05-07T11:59:40;101828.81;;;15.90;64.21
61786;BME280;47692;53.714;11.372;2023-05-07T12:02:06;101829.47;;;15.98;64.11
61786;BME280;47692;53.714;11.372;2023-05-07T12:04:32;101826.84;;;15.98;63.06
61786;BME280;47692;53.714;11.372;2023-05-07T12:06:57;101828.13;;;16.14;62.77
61786;BME280;47692;53.714;11.372;2023-05-07T12:09:23;101829.75;;;16.19;63.09
61786;BME280;47692;53.714;11.372;2023-05-07T12:11:48;101830.03;;;16.09;63.68
61786;BME280;47692;53.714;11.372;2023-05-07T12:14:14;101823.31;;;15.99;63.11
61786;BME280;47692;53.714;11.372;2023-05-07T12:16:43;101827.84;;;15.94;63.48
61786;BME280;47692;53.714;11.372;2023-05-07T12:19:10;101825.84;;;16.02;63.15
61786;BME280;47692;53.714;11.372;2023-05-07T12:21:38;101822.38;;;16.31;62.17
61786;BME280;47692;53.714;11.372;2023-05-07T12:24:04;101822.69;;;16.51;61.79
61786;BME280;47692;53.714;11.372;2023-05-07T12:26:30;101832.13;;;16.58;63.13
61786;BME280;47692;53.714;11.372;2023-05-07T12:28:57;101819.78;;;16.30;61.04
61786;BME280;47692;53.714;11.372;2023-05-07T12:31:23;101824.03;;;16.04;62.37
61786;BME280;47692;53.714;11.372;2023-05-07T12:33:50;101821.84;;;16.19;64.44
61786;BME280;47692;53.714;11.372;2023-05-07T12:36:15;101821.78;;;16.52;61.48
61786;BME280;47692;53.714;11.372;2023-05-07T12:38:41;101818.47;;;16.73;61.23
61786;BME280;47692;53.714;11.372;2023-05-07T12:41:08;101811.66;;;16.96;61.01
61786;BME280;47692;53.714;11.372;2023-05-07T12:43:34;101816.47;;;17.10;60.92
61786;BME280;47692;53.714;11.372;2023-05-07T12:46:01;101816.50;;;17.35;59.79
61786;BME280;47692;53.714;11.372;2023-05-07T12:48:28;101810.41;;;17.60;58.77